createdAt,value
2018-11-23T00:01:51.084Z,35.07
2018-11-23T00:06:53.230Z,34.60
2018-11-23T00:11:55.331Z,36.93
2018-11-23T00:16:57.444Z,36.13
2018-11-23T00:21:59.620Z,35.43
2018-11-23T00:27:01.733Z,38.00
2018-11-23T00:32:03.975Z,34.97
2018-11-23T00:37:06.096Z,36.83
2018-11-23T00:42:08.198Z,37.50
2018-11-23T00:47:10.320Z,39.27
2018-11-23T00:52:12.445Z,48.33
2018-11-23T00:57:14.525Z,42.27
2018-11-23T01:02:16.697Z,35.77
2018-11-23T01:07:18.829Z,40.40
2018-11-23T01:12:20.976Z,46.03
2018-11-23T01:17:23.234Z,40.97
2018-11-23T01:22:25.551Z,39.50
2018-11-23T01:27:27.670Z,43.80
2018-11-23T01:32:29.792Z,41.43
2018-11-23T01:37:31.902Z,41.60
2018-11-23T01:42:34.022Z,42.43
2018-11-23T01:47:36.169Z,43.20
2018-11-23T01:52:38.311Z,40.70
2018-11-23T01:57:40.745Z,44.40
2018-11-23T02:02:43.340Z,43.07
2018-11-23T02:07:45.449Z,40.97
2018-11-23T02:12:47.571Z,38.83
2018-11-23T02:17:50.099Z,40.63
2018-11-23T02:22:52.259Z,41.30
2018-11-23T02:27:54.355Z,40.53
2018-11-23T02:32:56.475Z,42.63
2018-11-23T02:37:58.523Z,41.50
2018-11-23T02:43:00.648Z,44.13
2018-11-23T02:48:02.803Z,39.50
2018-11-23T02:53:04.922Z,38.07
2018-11-23T02:58:07.006Z,44.57
2018-11-23T03:03:09.140Z,40.87
2018-11-23T03:08:11.227Z,41.83
2018-11-23T03:13:13.328Z,41.47
2018-11-23T03:18:15.448Z,39.77
2018-11-23T03:23:17.563Z,37.97
2018-11-23T03:28:19.710Z,40.33
2018-11-23T03:33:21.824Z,40.07
2018-11-23T03:38:23.926Z,37.57
2018-11-23T03:43:26.023Z,37.80
2018-11-23T03:48:28.126Z,39.10
2018-11-23T03:53:30.266Z,38.10
2018-11-23T03:58:32.352Z,40.20
2018-11-23T04:03:34.455Z,39.63
2018-11-23T04:08:36.576Z,41.43
2018-11-23T04:13:38.659Z,37.80
2018-11-23T04:18:40.736Z,39.47
2018-11-23T04:23:42.898Z,40.43
2018-11-23T04:28:45.001Z,41.23
2018-11-23T04:33:47.416Z,37.70
2018-11-23T04:38:49.534Z,40.57
2018-11-23T04:43:51.611Z,42.30
2018-11-23T04:48:53.726Z,46.27
2018-11-23T04:53:55.826Z,44.27
2018-11-23T04:58:57.963Z,40.30
2018-11-23T05:04:00.105Z,40.37
2018-11-23T05:09:02.270Z,42.70
2018-11-23T05:14:04.651Z,40.57
2018-11-23T05:19:06.817Z,41.27
2018-11-23T05:24:08.918Z,43.23
2018-11-23T05:29:11.056Z,39.67
2018-11-23T05:34:13.175Z,41.77
2018-11-23T05:39:15.293Z,37.00
2018-11-23T05:44:17.400Z,39.87
2018-11-23T05:49:19.500Z,41.70
2018-11-23T05:54:21.614Z,41.97
2018-11-23T05:59:23.736Z,38.97
2018-11-23T06:04:25.839Z,41.40
2018-11-23T06:09:27.934Z,44.10
2018-11-23T06:14:30.063Z,41.27
2018-11-23T06:19:32.175Z,40.10
2018-11-23T06:24:34.514Z,40.37
2018-11-23T06:29:36.613Z,37.77
2018-11-23T06:34:38.752Z,40.07
2018-11-23T06:39:40.867Z,43.00
2018-11-23T06:44:42.990Z,42.17
2018-11-23T06:49:45.098Z,40.90
2018-11-23T06:54:47.219Z,40.43
2018-11-23T06:59:49.362Z,43.57
2018-11-23T07:04:51.469Z,39.73
2018-11-23T07:09:53.597Z,37.80
2018-11-23T07:14:55.711Z,38.90
2018-11-23T07:19:57.851Z,38.60
2018-11-23T07:24:59.988Z,40.20
2018-11-23T07:30:02.373Z,44.90
2018-11-23T07:35:04.829Z,41.47
2018-11-23T07:40:19.516Z,37.03
2018-11-23T07:45:21.685Z,43.00
2018-11-23T07:50:23.868Z,37.47
2018-11-23T07:55:26.028Z,38.10
2018-11-23T08:00:28.372Z,38.17
2018-11-23T08:05:30.506Z,35.17
2018-11-23T08:10:32.226Z,35.20
2018-11-23T08:15:34.391Z,37.87
2018-11-23T08:20:36.531Z,36.30
2018-11-23T08:25:38.686Z,34.00
2018-11-23T08:30:40.806Z,36.10
2018-11-23T08:35:42.984Z,34.07
2018-11-23T08:40:45.142Z,33.27
2018-11-23T08:45:47.322Z,33.90
2018-11-23T08:50:49.473Z,33.30
2018-11-23T08:55:51.619Z,32.10
2018-11-23T09:00:53.782Z,33.27
2018-11-23T09:05:55.919Z,31.03
2018-11-23T09:10:58.069Z,29.17
2018-11-23T09:16:00.210Z,29.50
2018-11-23T09:21:02.384Z,32.03
2018-11-23T09:26:04.598Z,28.53
2018-11-23T09:31:06.735Z,30.03
2018-11-23T09:36:08.868Z,25.93
2018-11-23T09:41:11.038Z,26.40
2018-11-23T09:46:13.222Z,28.17
2018-11-23T09:51:15.384Z,26.63
2018-11-23T09:56:17.542Z,26.50
2018-11-23T10:01:19.689Z,25.87
2018-11-23T10:06:21.807Z,27.57
2018-11-23T10:11:23.971Z,24.30
2018-11-23T10:16:26.113Z,25.77
2018-11-23T10:21:28.507Z,26.17
2018-11-23T10:26:30.667Z,29.83
2018-11-23T10:31:32.814Z,26.00
2018-11-23T10:36:35.287Z,27.10
2018-11-23T10:41:37.419Z,25.53
2018-11-23T10:51:41.690Z,26.07
2018-11-23T10:56:43.808Z,26.83
2018-11-23T11:01:51.664Z,25.63
2018-11-23T11:06:54.880Z,28.33
2018-11-23T11:11:57.036Z,29.20
2018-11-23T11:16:59.200Z,26.90
2018-11-23T11:22:01.330Z,27.00
2018-11-23T11:27:03.736Z,27.67
2018-11-23T11:32:05.912Z,28.03
2018-11-23T11:37:08.091Z,25.87
2018-11-23T11:42:10.199Z,25.63
2018-11-23T11:47:12.320Z,26.50
2018-11-23T11:52:14.454Z,27.00
2018-11-23T11:57:16.743Z,28.90
2018-11-23T12:02:18.905Z,29.40
2018-11-23T12:07:21.056Z,28.07
2018-11-23T12:12:23.232Z,28.83
2018-11-23T12:17:25.370Z,26.50
2018-11-23T12:22:27.479Z,23.60
2018-11-23T12:27:29.672Z,26.63
2018-11-23T12:32:31.817Z,25.30
2018-11-23T12:37:33.945Z,24.57
2018-11-23T12:42:36.119Z,24.60
2018-11-23T12:47:38.402Z,25.93
2018-11-23T12:52:40.532Z,25.47
2018-11-23T12:57:42.866Z,25.00
2018-11-23T13:02:46.208Z,24.00
2018-11-23T13:07:48.864Z,25.67
2018-11-23T13:12:52.584Z,25.13
2018-11-23T13:17:55.294Z,24.60
2018-11-23T13:22:57.497Z,25.90
2018-11-23T13:27:59.870Z,25.03
2018-11-23T13:33:02.103Z,23.10
2018-11-23T13:38:04.515Z,24.00
2018-11-23T13:43:06.708Z,22.47
2018-11-23T13:48:08.855Z,25.20
2018-11-23T13:53:10.995Z,24.70
2018-11-23T13:58:13.145Z,24.43
2018-11-23T14:03:15.341Z,24.97
2018-11-23T14:08:17.534Z,27.10
2018-11-23T14:13:19.704Z,24.63
2018-11-23T14:18:21.854Z,25.10
2018-11-23T14:23:24.034Z,21.93
2018-11-23T14:28:26.225Z,25.30
2018-11-23T14:33:28.366Z,26.83
2018-11-23T14:38:30.524Z,26.67
2018-11-23T14:43:32.708Z,25.77
2018-11-23T14:48:34.875Z,24.73
2018-11-23T14:53:37.077Z,26.63
2018-11-23T14:58:39.245Z,25.27
2018-11-23T15:03:41.463Z,27.73
2018-11-23T15:08:43.613Z,24.27
2018-11-23T15:13:45.766Z,27.90
2018-11-23T15:18:47.961Z,25.53
2018-11-23T15:23:50.153Z,24.70
2018-11-23T15:28:52.355Z,25.30
2018-11-23T15:33:54.524Z,27.97
2018-11-23T15:38:56.684Z,27.50
2018-11-23T15:43:58.857Z,28.90
2018-11-23T15:49:01.107Z,30.87
2018-11-23T15:54:03.359Z,26.53
2018-11-23T15:59:05.542Z,28.60
2018-11-23T16:04:07.752Z,27.50
2018-11-23T16:09:11.843Z,27.73
2018-11-23T16:14:13.989Z,26.97
2018-11-23T16:19:16.136Z,29.57
2018-11-23T16:24:18.298Z,31.47
2018-11-23T16:29:20.526Z,30.67
2018-11-23T16:34:22.670Z,34.90
2018-11-23T16:39:24.869Z,31.73
2018-11-23T16:44:27.068Z,32.53
2018-11-23T16:49:29.316Z,33.13
2018-11-23T16:54:31.501Z,31.17
2018-11-23T16:59:33.678Z,31.93
2018-11-23T17:04:35.888Z,31.37
2018-11-23T17:09:38.069Z,33.90
2018-11-23T17:14:40.284Z,34.30
2018-11-23T17:19:43.337Z,36.07
2018-11-23T17:24:45.605Z,31.43
2018-11-23T17:29:47.823Z,32.17
2018-11-23T17:34:50.005Z,33.20
2018-11-23T17:39:52.173Z,32.63
2018-11-23T17:44:54.422Z,35.27
2018-11-23T17:49:57.024Z,36.17
2018-11-23T17:54:59.190Z,36.67
2018-11-23T18:00:01.380Z,40.83
2018-11-23T18:05:07.522Z,36.03
2018-11-23T18:10:08.944Z,37.40
2018-11-23T18:15:14.384Z,38.47
2018-11-23T18:20:17.758Z,36.10
2018-11-23T18:25:21.341Z,34.83
2018-11-23T18:30:23.571Z,41.43
2018-11-23T18:35:25.819Z,37.83
2018-11-23T18:40:28.057Z,35.07
2018-11-23T18:45:30.265Z,38.10
2018-11-23T18:50:32.469Z,40.23
2018-11-23T18:55:34.660Z,41.30
2018-11-23T19:00:36.897Z,47.53
2018-11-23T19:05:39.107Z,42.63
2018-11-23T19:10:41.293Z,45.27
2018-11-23T19:15:43.541Z,40.40
2018-11-23T19:20:45.754Z,40.90
2018-11-23T19:25:47.961Z,43.13
2018-11-23T19:30:50.216Z,44.13
2018-11-23T19:35:52.389Z,41.43
2018-11-23T19:40:55.171Z,41.40
2018-11-23T19:45:57.455Z,45.77
2018-11-23T19:51:00.170Z,40.40
2018-11-23T19:56:02.796Z,39.37
2018-11-23T20:01:05.830Z,45.27
2018-11-23T20:06:08.096Z,48.47
2018-11-23T20:11:10.620Z,47.67
2018-11-23T20:16:13.295Z,45.70
2018-11-23T20:21:15.637Z,46.33
2018-11-23T20:26:18.320Z,48.70
2018-11-23T20:31:22.695Z,45.40
2018-11-23T20:36:25.688Z,44.00
2018-11-23T20:41:29.111Z,44.37
2018-11-23T20:46:32.501Z,46.83
2018-11-23T20:51:37.332Z,49.50
2018-11-23T20:56:39.979Z,49.87
2018-11-23T21:01:42.954Z,49.10
2018-11-23T21:06:45.543Z,46.17
2018-11-23T21:11:47.796Z,45.60
2018-11-23T21:16:50.068Z,49.70
2018-11-23T21:21:52.307Z,45.90
2018-11-23T21:26:54.504Z,50.87
2018-11-23T21:31:56.788Z,45.40
2018-11-23T21:36:58.984Z,49.67
2018-11-23T21:42:01.157Z,46.73
2018-11-23T21:47:03.347Z,51.43
2018-11-23T21:52:05.609Z,46.63
2018-11-23T21:57:07.849Z,44.43
2018-11-23T22:02:10.023Z,45.57
2018-11-23T22:07:12.212Z,46.70
2018-11-23T22:12:14.361Z,47.90
2018-11-23T22:17:16.816Z,46.73
2018-11-23T22:22:18.997Z,43.60
2018-11-23T22:27:21.154Z,43.47
2018-11-23T22:32:23.368Z,42.80
2018-11-23T22:37:25.554Z,44.87
2018-11-23T22:42:27.744Z,43.23
2018-11-23T22:47:29.943Z,45.83
2018-11-23T22:52:32.146Z,45.90
2018-11-23T22:57:34.347Z,43.70
2018-11-23T23:02:36.518Z,43.90
2018-11-23T23:07:38.669Z,38.73
2018-11-23T23:12:40.902Z,41.17
2018-11-23T23:17:43.260Z,44.33
2018-11-23T23:22:45.431Z,40.47
2018-11-23T23:27:47.601Z,40.73
2018-11-23T23:32:49.880Z,39.30
2018-11-23T23:37:52.073Z,41.70
2018-11-23T23:42:54.240Z,44.80
2018-11-23T23:47:56.455Z,46.97
2018-11-23T23:52:58.676Z,40.93
2018-11-23T23:58:01.453Z,41.23
